Time;durP1;ratioP1;P1;durP2;ratioP2;P2;SDS_P1;SDS_P2;PMS_P1;PMS_P2;Temp;Humidity;BMP_temperature;BMP_pressure;BME280_temperature;BME280_humidity;BME280_pressure;Samples;Min_cycle;Max_cycle;Signal;HPM_P1;HPM_P2
2022/09/16 14:16:31;;;;;;;;;;;;;;;;;;6237468;22;19923;-77
2022/09/16 14:18:56;;;;;;;;;;;;;;;;;;6241114;23;19983;-77
2022/09/16 14:21:22;;;;;;;;;;;;;;;;;;6241169;23;20348;-78
2022/09/16 14:23:48;;;;;;;;;;;;;;;;;;6213981;23;19930;-79
2022/09/16 14:26:13;;;;;;;;;;;;;;;;;;6243011;23;19940;-78
2022/09/16 14:28:39;;;;;;;;;;;;;;;;;;6242169;23;20011;-78
2022/09/16 14:31:04;;;;;;;;;;;;;;;;;;6243097;23;19915;-78
2022/09/16 14:33:30;;;;;;;;;;;;;;;;;;6243305;23;19915;-79
2022/09/16 14:35:56;;;;;;;;;;;;;;;;;;6242431;23;19911;-78
2022/09/16 14:38:21;;;;;;;;;;;;;;;;;;6240838;23;19911;-78
2022/09/16 14:40:47;;;;;;;;;;;;;;;;;;6240727;23;20340;-78
2022/09/16 14:43:13;;;;;;;;;;;;;;;;;;6240855;23;19919;-78
2022/09/16 14:45:38;;;;;;;;;;;;;;;;;;6240918;23;19915;-78
2022/09/16 14:48:04;;;;;;;;;;;;;;;;;;6241200;23;19914;-78
2022/09/16 14:50:29;;;;;;;;;;;;;;;;;;6240824;23;19911;-78
2022/09/16 14:52:55;;;;;;;;;;;;;;;;;;6243216;23;19915;-77
2022/09/16 14:55:21;;;;;;;;;;;;;;;;;;6243413;23;19911;-77
2022/09/16 14:57:46;;;;;;;;;;;;;;;;;;6243150;23;19942;-80
2022/09/16 15:00:12;;;;;;;;;;;;;;;;;;6243592;23;19912;-80
2022/09/16 15:02:37;;;;;;;;;;;;;;;;;;6243740;23;19965;-79
2022/09/16 15:05:03;;;;;;;;;;;;;;;;;;6242752;23;19919;-78
2022/09/16 15:07:29;;;;;;;;;;;;;;;;;;6243404;23;19911;-76
2022/09/16 15:09:54;;;;;;;;;;;;;;;;;;6242707;22;20229;-78
2022/09/16 15:12:20;;;;;;;;;;;;;;;;;;6243126;23;19935;-78
2022/09/16 15:14:46;;;;;;;;;;;;;;;;;;6242641;23;19912;-78
2022/09/16 15:17:11;;;;;;;;;;;;;;;;;;6243362;23;19920;-78
2022/09/16 15:19:37;;;;;;;;;;;;;;;;;;6246425;23;19919;-78
2022/09/16 15:22:03;;;;;;;;;;;;;;;;;;6253054;23;19920;-78
2022/09/16 15:24:29;;;;;;;;;;;;;;;;;;6254683;23;20298;-79
2022/09/16 15:26:55;;;;;;;;;;;;;;;;;;6243222;23;19918;-79
2022/09/16 15:29:20;;;;;;;;;;;;;;;;;;6242932;23;19912;-79
2022/09/16 15:31:46;;;;;;;;;;;;;;;;;;6242875;23;19912;-79
2022/09/16 15:34:14;;;;;;;;;;;;;;;;;;6242963;23;19950;-79
2022/09/16 15:36:39;;;;;;;;;;;;;;;;;;6242287;23;19919;-80
2022/09/16 15:39:05;;;;;;;;;;;;;;;;;;6216101;23;19911;-79
2022/09/16 15:41:31;;;;;;;;;;;;;;;;;;6240653;23;20337;-79
2022/09/16 15:43:56;;;;;;;;;;;;;;;;;;6212865;23;19938;-78
2022/09/16 15:46:22;;;;;;;;;;;;;;;;;;6242314;23;19911;-78
2022/09/16 15:48:48;;;;;;;;;;;;;;;;;;6241309;23;19997;-78
2022/09/16 15:51:13;;;;;;;;;;;;;;;;;;6215649;23;19926;-78
2022/09/16 15:53:40;;;;;;;;;;;;;;;;;;6243454;23;19919;-78
2022/09/16 15:56:06;;;;;;;;;;;;;;;;;;6243033;23;19911;-77
2022/09/16 15:58:32;;;;;;;;;;;;;;;;;;6244058;23;19966;-79
2022/09/16 16:00:58;;;;;;;;;;;;;;;;;;6246274;23;19912;-82
2022/09/16 16:03:23;;;;;;;;;;;;;;;;;;6244873;23;19931;-81
2022/09/16 16:05:49;;;;;;;;;;;;;;;;;;6242609;23;20387;-79
2022/09/16 16:08:15;;;;;;;;;;;;;;;;;;6242740;23;19998;-79
2022/09/16 16:10:42;;;;;;;;;;;;;;;;;;6242201;22;19990;-79
2022/09/16 16:13:08;;;;;;;;;;;;;;;;;;6242535;23;20115;-79
2022/09/16 16:15:33;;;;;;;;;;;;;;;;;;6243135;23;20277;-80
2022/09/16 16:17:59;;;;;;;;;;;;;;;;;;6242546;23;19989;-80
2022/09/16 16:20:25;;;;;;;;;;;;;;;;;;6242810;23;19935;-80
2022/09/16 16:22:51;;;;;;;;;;;;;;;;;;6241752;23;19920;-78
2022/09/16 16:25:17;;;;;;;;;;;;;;;;;;6243326;23;19946;-77
2022/09/16 16:27:42;;;;;;;;;;;;;;;;;;6243668;23;19918;-77
2022/09/16 16:30:08;;;;;;;;;;;;;;;;;;6249563;23;19916;-78
2022/09/16 16:32:34;;;;;;;;;;;;;;;;;;6256578;23;20359;-76
2022/09/16 16:35:00;;;;;;;;;;;;;;;;;;6254877;23;19939;-77
2022/09/16 16:37:26;;;;;;;;;;;;;;;;;;6224894;23;19918;-77
2022/09/16 16:39:52;;;;;;;;;;;;;;;;;;6217171;23;19912;-78
2022/09/16 16:42:17;;;;;;;;;;;;;;;;;;6242067;23;20410;-78
2022/09/16 16:44:43;;;;;;;;;;;;;;;;;;6242362;23;20014;-78
2022/09/16 16:47:09;;;;;;;;;;;;;;;;;;6241694;23;19923;-77
2022/09/16 16:49:34;;;;;;;;;;;;;;;;;;6241851;23;20375;-77
2022/09/16 16:52:00;;;;;;;;;;;;;;;;;;6241383;23;19911;-77
2022/09/16 16:54:26;;;;;;;;;;;;;;;;;;6241209;23;19912;-77
2022/09/16 16:56:51;;;;;;;;;;;;;;;;;;6241358;23;19919;-78
2022/09/16 16:59:17;;;;;;;;;;;;;;;;;;6238767;23;20406;-75
2022/09/16 17:01:44;;;;;;;;;;;;;;;;;;6236565;23;19911;-74
2022/09/16 17:04:09;;;;;;;;;;;;;;;;;;6239430;23;19911;-75
2022/09/16 17:06:36;;;;;;;;;;;;;;;;;;6240730;23;20336;-75
2022/09/16 17:09:02;;;;;;;;;;;;;;;;;;6213388;22;19920;-73
2022/09/16 17:11:29;;;;;;;;;;;;;;;;;;6213397;23;19916;-74
2022/09/16 17:13:54;;;;;;;;;;;;;;;;;;6238460;23;19918;-74
2022/09/16 17:16:20;;;;;;;;;;;;;;;;;;6239740;23;19920;-73
2022/09/16 17:18:46;;;;;;;;;;;;;;;;;;6245918;23;19916;-75
2022/09/16 17:21:11;;;;;;;;;;;;;;;;;;6214061;23;19916;-75
2022/09/16 17:23:37;;;;;;;;;;;;;;;;;;6240128;23;19947;-74
2022/09/16 17:26:03;;;;;;;;;;;;;;;;;;6234847;23;19912;-75
2022/09/16 17:28:28;;;;;;;;;;;;;;;;;;6213355;23;19916;-76
2022/09/16 17:30:54;;;;;;;;;;;;;;;;;;6240103;23;20494;-77
2022/09/16 17:33:20;;;;;;;;;;;;;;;;;;6240614;23;19922;-75
2022/09/16 17:35:46;;;;;;;;;;;;;;;;;;6240306;23;19938;-76
2022/09/16 17:38:12;;;;;;;;;;;;;;;;;;6238993;23;20328;-76
2022/09/16 17:40:38;;;;;;;;;;;;;;;;;;6238235;23;20353;-76
2022/09/16 17:43:04;;;;;;;;;;;;;;;;;;6238851;23;19919;-74
2022/09/16 17:45:29;;;;;;;;;;;;;;;;;;6240245;23;19907;-77
2022/09/16 17:47:57;;;;;;;;;;;;;;;;;;6239860;23;19911;-76
2022/09/16 17:50:22;;;;;;;;;;;;;;;;;;6238294;23;20392;-77
2022/09/16 17:52:48;;;;;;;;;;;;;;;;;;6239180;23;19946;-77
2022/09/16 17:55:14;;;;;;;;;;;;;;;;;;6213481;23;19912;-80
2022/09/16 17:57:39;;;;;;;;;;;;;;;;;;6240052;23;20344;-76
2022/09/16 18:00:05;;;;;;;;;;;;;;;;;;6212379;23;20017;-76
2022/09/16 18:02:37;;;;;;;;;;;;;;;;;;6239491;23;20293;-75
2022/09/16 18:05:03;;;;;;;;;;;;;;;;;;6239867;23;19995;-75
2022/09/16 18:07:28;;;;;;;;;;;;;;;;;;6213337;23;19948;-76
2022/09/16 18:09:54;;;;;;;;;;;;;;;;;;6239132;22;19935;-76
2022/09/16 18:12:20;;;;;;;;;;;;;;;;;;6240433;23;19993;-75
2022/09/16 18:14:46;;;;;;;;;;;;;;;;;;6239054;23;19994;-76
2022/09/16 18:17:11;;;;;;;;;;;;;;;;;;6240030;23;20261;-75
2022/09/16 18:19:37;;;;;;;;;;;;;;;;;;6240650;23;20303;-75
2022/09/16 18:22:03;;;;;;;;;;;;;;;;;;6239630;23;19926;-75
2022/09/16 18:24:28;;;;;;;;;;;;;;;;;;6240728;23;19915;-76
2022/09/16 18:26:54;;;;;;;;;;;;;;;;;;6238773;23;19912;-78
2022/09/16 18:29:19;;;;;;;;;;;;;;;;;;6240248;23;19911;-77
2022/09/16 18:31:45;;;;;;;;;;;;;;;;;;6239920;23;19911;-77
2022/09/16 18:34:11;;;;;;;;;;;;;;;;;;6238972;23;19907;-76
2022/09/16 18:36:37;;;;;;;;;;;;;;;;;;6213299;23;20065;-76
2022/09/16 18:39:03;;;;;;;;;;;;;;;;;;6240543;23;20264;-76
2022/09/16 18:41:29;;;;;;;;;;;;;;;;;;6238237;23;19915;-76
2022/09/16 18:43:55;;;;;;;;;;;;;;;;;;6213418;23;20355;-77
2022/09/16 18:46:21;;;;;;;;;;;;;;;;;;6238550;23;19943;-76
2022/09/16 18:48:47;;;;;;;;;;;;;;;;;;6240375;23;20422;-76
2022/09/16 18:51:12;;;;;;;;;;;;;;;;;;6239514;23;19919;-76
2022/09/16 18:53:38;;;;;;;;;;;;;;;;;;6239080;23;20183;-75
2022/09/16 18:56:04;;;;;;;;;;;;;;;;;;6239494;23;19939;-76
2022/09/16 18:58:29;;;;;;;;;;;;;;;;;;6240305;23;19912;-77
2022/09/16 19:00:55;;;;;;;;;;;;;;;;;;6239297;23;19954;-75
2022/09/16 19:03:22;;;;;;;;;;;;;;;;;;6239560;23;19926;-76
2022/09/16 19:05:48;;;;;;;;;;;;;;;;;;6239240;23;19912;-76
2022/09/16 19:08:14;;;;;;;;;;;;;;;;;;6239778;23;19912;-75
2022/09/16 19:10:39;;;;;;;;;;;;;;;;;;6240490;22;20348;-75
2022/09/16 19:13:06;;;;;;;;;;;;;;;;;;6250234;23;19920;-76
2022/09/16 19:15:33;;;;;;;;;;;;;;;;;;6250513;23;19955;-76
2022/09/16 19:17:59;;;;;;;;;;;;;;;;;;6214996;23;19915;-76
2022/09/16 19:20:25;;;;;;;;;;;;;;;;;;6240515;23;19912;-76
2022/09/16 19:22:51;;;;;;;;;;;;;;;;;;6240131;23;19926;-76
2022/09/16 19:25:17;;;;;;;;;;;;;;;;;;6240447;23;19923;-75
2022/09/16 19:27:43;;;;;;;;;;;;;;;;;;6240867;23;20399;-77
2022/09/16 19:30:08;;;;;;;;;;;;;;;;;;6240191;23;20020;-77
2022/09/16 19:32:34;;;;;;;;;;;;;;;;;;6240745;23;20384;-77
2022/09/16 19:35:00;;;;;;;;;;;;;;;;;;6241158;23;19911;-78
2022/09/16 19:37:25;;;;;;;;;;;;;;;;;;6241855;23;19942;-80
2022/09/16 19:39:51;;;;;;;;;;;;;;;;;;6242300;23;19915;-78
2022/09/16 19:42:16;;;;;;;;;;;;;;;;;;6241029;23;19928;-77
2022/09/16 19:44:42;;;;;;;;;;;;;;;;;;6216223;23;20268;-81
2022/09/16 19:47:08;;;;;;;;;;;;;;;;;;6242639;23;19911;-82
2022/09/16 19:49:34;;;;;;;;;;;;;;;;;;6242925;23;20360;-80
2022/09/16 19:51:59;;;;;;;;;;;;;;;;;;6245134;23;19986;-79
2022/09/16 19:54:25;;;;;;;;;;;;;;;;;;6259255;23;19919;-79
2022/09/16 19:56:50;;;;;;;;;;;;;;;;;;6263277;23;19912;-79
2022/09/16 19:59:16;;;;;;;;;;;;;;;;;;6226449;23;20261;-80
2022/09/16 20:01:42;;;;;;;;;;;;;;;;;;6244123;23;19918;-80
2022/09/16 20:04:08;;;;;;;;;;;;;;;;;;6215644;23;20264;-80
2022/09/16 20:06:37;;;;;;;;;;;;;;;;;;6246603;23;19998;-79
2022/09/16 20:09:04;;;;;;;;;;;;;;;;;;6245518;22;19934;-80
2022/09/16 20:11:30;;;;;;;;;;;;;;;;;;6242573;23;20329;-80
2022/09/16 20:13:55;;;;;;;;;;;;;;;;;;6241529;23;19916;-79
2022/09/16 20:16:22;;;;;;;;;;;;;;;;;;6241230;23;19920;-79
2022/09/16 20:18:47;;;;;;;;;;;;;;;;;;6241851;23;20300;-79
2022/09/16 20:21:13;;;;;;;;;;;;;;;;;;6242038;23;19954;-76
2022/09/16 20:23:39;;;;;;;;;;;;;;;;;;6214042;23;20351;-76
2022/09/16 20:26:04;;;;;;;;;;;;;;;;;;6243808;23;19998;-76
2022/09/16 20:28:30;;;;;;;;;;;;;;;;;;6241091;23;19918;-75
2022/09/16 20:30:55;;;;;;;;;;;;;;;;;;6241099;23;19911;-77
2022/09/16 20:33:21;;;;;;;;;;;;;;;;;;6214382;23;19912;-74
2022/09/16 20:35:47;;;;;;;;;;;;;;;;;;6240534;23;20315;-74
2022/09/16 20:38:13;;;;;;;;;;;;;;;;;;6241174;23;19958;-74
2022/09/16 20:40:39;;;;;;;;;;;;;;;;;;6241149;23;19994;-74
2022/09/16 20:43:04;;;;;;;;;;;;;;;;;;6238145;23;20260;-73
2022/09/16 20:45:30;;;;;;;;;;;;;;;;;;6240884;23;19920;-75
2022/09/16 20:47:56;;;;;;;;;;;;;;;;;;6241556;23;19970;-73
2022/09/16 20:50:22;;;;;;;;;;;;;;;;;;6215427;23;20327;-74
2022/09/16 20:52:47;;;;;;;;;;;;;;;;;;6242565;23;19908;-73
2022/09/16 20:55:13;;;;;;;;;;;;;;;;;;6241275;23;20228;-73
2022/09/16 20:57:38;;;;;;;;;;;;;;;;;;6241410;23;20361;-73
2022/09/16 21:00:04;;;;;;;;;;;;;;;;;;6240740;23;19939;-73
2022/09/16 21:02:31;;;;;;;;;;;;;;;;;;6241515;23;20386;-73
2022/09/16 21:05:02;;;;;;;;;;;;;;;;;;6239920;23;19911;-74
2022/09/16 21:07:28;;;;;;;;;;;;;;;;;;6241607;23;19918;-73
2022/09/16 21:09:54;;;;;;;;;;;;;;;;;;6241832;22;19912;-73
2022/09/16 21:12:19;;;;;;;;;;;;;;;;;;6241295;23;19915;-73
2022/09/16 21:14:45;;;;;;;;;;;;;;;;;;6241278;23;20015;-72
2022/09/16 21:17:10;;;;;;;;;;;;;;;;;;6240975;23;19911;-73
2022/09/16 21:19:36;;;;;;;;;;;;;;;;;;6241391;23;19912;-73
2022/09/16 21:22:02;;;;;;;;;;;;;;;;;;6240810;23;19919;-73
2022/09/16 21:24:28;;;;;;;;;;;;;;;;;;6241498;23;20002;-74
2022/09/16 21:26:53;;;;;;;;;;;;;;;;;;6241187;23;20379;-72
2022/09/16 21:29:20;;;;;;;;;;;;;;;;;;6240988;23;19966;-73
2022/09/16 21:31:45;;;;;;;;;;;;;;;;;;6241066;23;20362;-73
2022/09/16 21:34:11;;;;;;;;;;;;;;;;;;6239006;23;19990;-73
2022/09/16 21:36:38;;;;;;;;;;;;;;;;;;6214469;23;19989;-71
2022/09/16 21:39:04;;;;;;;;;;;;;;;;;;6240926;23;19911;-73
2022/09/16 21:41:30;;;;;;;;;;;;;;;;;;6241396;23;19919;-73
2022/09/16 21:43:55;;;;;;;;;;;;;;;;;;6241181;23;19927;-73
2022/09/16 21:46:21;;;;;;;;;;;;;;;;;;6240598;23;19966;-73
2022/09/16 21:48:47;;;;;;;;;;;;;;;;;;6241347;23;19965;-72
2022/09/16 21:51:12;;;;;;;;;;;;;;;;;;6214144;23;19957;-74
2022/09/16 21:53:44;;;;;;;;;;;;;;;;;;6214591;23;19942;-74
2022/09/16 21:56:10;;;;;;;;;;;;;;;;;;6240792;23;19915;-74
2022/09/16 21:58:35;;;;;;;;;;;;;;;;;;6241487;23;20363;-73
2022/09/16 22:01:01;;;;;;;;;;;;;;;;;;6240671;23;20400;-73
2022/09/16 22:03:27;;;;;;;;;;;;;;;;;;6214288;23;19926;-73
2022/09/16 22:05:52;;;;;;;;;;;;;;;;;;6240721;23;19911;-73
2022/09/16 22:08:18;;;;;;;;;;;;;;;;;;6239157;23;20036;-73
2022/09/16 22:10:44;;;;;;;;;;;;;;;;;;6240460;22;19912;-73
2022/09/16 22:13:09;;;;;;;;;;;;;;;;;;6239604;23;20268;-73
2022/09/16 22:15:35;;;;;;;;;;;;;;;;;;6237294;23;20280;-72
2022/09/16 22:18:01;;;;;;;;;;;;;;;;;;6238764;22;19919;-74
2022/09/16 22:20:26;;;;;;;;;;;;;;;;;;6213740;23;19918;-74
2022/09/16 22:22:52;;;;;;;;;;;;;;;;;;6240728;23;19962;-74
2022/09/16 22:25:18;;;;;;;;;;;;;;;;;;6240990;23;19911;-73
2022/09/16 22:27:44;;;;;;;;;;;;;;;;;;6240911;23;19961;-74
2022/09/16 22:30:09;;;;;;;;;;;;;;;;;;6240707;23;19911;-74
2022/09/16 22:32:35;;;;;;;;;;;;;;;;;;6240628;23;19912;-74
2022/09/16 22:35:01;;;;;;;;;;;;;;;;;;6213234;23;19912;-73
2022/09/16 22:37:26;;;;;;;;;;;;;;;;;;6240653;23;19962;-74
2022/09/16 22:39:52;;;;;;;;;;;;;;;;;;6239839;23;19947;-74
2022/09/16 22:42:17;;;;;;;;;;;;;;;;;;6239918;23;19923;-73
2022/09/16 22:44:43;;;;;;;;;;;;;;;;;;6240803;23;20249;-73
2022/09/16 22:47:09;;;;;;;;;;;;;;;;;;6241982;23;19923;-74
2022/09/16 22:49:34;;;;;;;;;;;;;;;;;;6242340;23;19912;-74
2022/09/16 22:52:00;;;;;;;;;;;;;;;;;;6215429;23;20404;-74
2022/09/16 22:54:25;;;;;;;;;;;;;;;;;;6242468;23;20074;-74
2022/09/16 22:56:51;;;;;;;;;;;;;;;;;;6242202;23;20002;-74
2022/09/16 22:59:16;;;;;;;;;;;;;;;;;;6243171;23;20325;-73
2022/09/16 23:01:42;;;;;;;;;;;;;;;;;;6242540;23;20308;-73
2022/09/16 23:04:08;;;;;;;;;;;;;;;;;;6242256;23;20003;-73
2022/09/16 23:06:33;;;;;;;;;;;;;;;;;;6242949;23;19911;-74
2022/09/16 23:08:59;;;;;;;;;;;;;;;;;;6215862;22;19915;-73
2022/09/16 23:11:24;;;;;;;;;;;;;;;;;;6215469;23;19911;-72
2022/09/16 23:13:51;;;;;;;;;;;;;;;;;;6242446;23;19912;-73
2022/09/16 23:16:17;;;;;;;;;;;;;;;;;;6241349;23;19962;-73
2022/09/16 23:18:43;;;;;;;;;;;;;;;;;;6242670;23;19912;-73
2022/09/16 23:21:08;;;;;;;;;;;;;;;;;;6215291;23;19922;-73
2022/09/16 23:23:34;;;;;;;;;;;;;;;;;;6246281;23;19919;-74
2022/09/16 23:25:59;;;;;;;;;;;;;;;;;;6248343;23;19918;-76
2022/09/16 23:28:25;;;;;;;;;;;;;;;;;;6252258;23;19922;-74
2022/09/16 23:30:51;;;;;;;;;;;;;;;;;;6252146;23;19957;-74
2022/09/16 23:33:16;;;;;;;;;;;;;;;;;;6243927;23;20254;-73
2022/09/16 23:35:42;;;;;;;;;;;;;;;;;;6241663;23;20257;-73
2022/09/16 23:38:07;;;;;;;;;;;;;;;;;;6241346;23;19912;-75
2022/09/16 23:40:33;;;;;;;;;;;;;;;;;;6242414;23;19915;-73
2022/09/16 23:42:59;;;;;;;;;;;;;;;;;;6241601;23;20418;-73
2022/09/16 23:45:24;;;;;;;;;;;;;;;;;;6241886;23;19931;-72
2022/09/16 23:47:50;;;;;;;;;;;;;;;;;;6215155;23;19939;-73
2022/09/16 23:50:15;;;;;;;;;;;;;;;;;;6214763;23;19912;-73
2022/09/16 23:52:41;;;;;;;;;;;;;;;;;;6240090;23;19964;-73
2022/09/16 23:55:07;;;;;;;;;;;;;;;;;;6214325;23;19993;-72
2022/09/16 23:57:32;;;;;;;;;;;;;;;;;;6241490;23;19911;-72
2022/09/16 23:59:58;;;;;;;;;;;;;;;;;;6241367;23;20164;-74
